createdAt,value
2019-04-11T00:01:56.709Z,9.10
2019-04-11T00:04:28.388Z,9.10
2019-04-11T00:07:00.318Z,9.10
2019-04-11T00:09:32.550Z,9.10
2019-04-11T00:12:06.341Z,9.00
2019-04-11T00:14:42.190Z,9.00
2019-04-11T00:17:21.625Z,9.00
2019-04-11T00:19:48.782Z,8.90
2019-04-11T00:22:21.521Z,8.90
2019-04-11T00:24:55.431Z,8.80
2019-04-11T00:27:27.107Z,8.80
2019-04-11T00:30:00.367Z,8.80
2019-04-11T00:32:33.756Z,8.70
2019-04-11T00:35:07.040Z,8.70
2019-04-11T00:37:38.886Z,8.70
2019-04-11T00:40:15.225Z,8.60
2019-04-11T00:42:47.133Z,8.60
2019-04-11T00:45:19.143Z,8.60
2019-04-11T00:47:50.861Z,8.50
2019-04-11T00:50:23.241Z,8.50
2019-04-11T00:52:56.426Z,8.50
2019-04-11T00:55:29.267Z,8.50
2019-04-11T00:58:01.397Z,8.50
2019-04-11T01:00:33.365Z,8.40
2019-04-11T01:03:06.396Z,8.40
2019-04-11T01:05:39.519Z,8.40
2019-04-11T01:08:11.495Z,8.30
2019-04-11T01:10:43.574Z,8.30
2019-04-11T01:13:18.370Z,8.30
2019-04-11T01:15:57.652Z,8.30
2019-04-11T01:18:29.885Z,8.20
2019-04-11T01:21:04.562Z,8.20
2019-04-11T01:23:37.325Z,8.20
2019-04-11T01:26:10.882Z,8.20
2019-04-11T01:28:47.333Z,8.10
2019-04-11T01:31:21.816Z,8.10
2019-04-11T01:33:56.054Z,8.10
2019-04-11T01:36:31.145Z,8.10
2019-04-11T01:39:35.078Z,8.00
2019-04-11T01:42:09.159Z,8.00
2019-04-11T01:44:43.267Z,7.90
2019-04-11T01:47:20.472Z,8.00
2019-04-11T01:49:56.603Z,7.90
2019-04-11T01:52:28.567Z,7.90
2019-04-11T01:55:00.443Z,7.90
2019-04-11T01:57:36.140Z,7.90
2019-04-11T02:00:12.214Z,7.80
2019-04-11T02:02:55.298Z,7.80
2019-04-11T02:05:31.201Z,7.80
2019-04-11T02:08:02.922Z,7.80
2019-04-11T02:10:37.049Z,7.70
2019-04-11T02:13:09.919Z,7.70
2019-04-11T02:15:41.624Z,7.70
2019-04-11T02:18:13.269Z,7.70
2019-04-11T02:20:45.259Z,7.70
2019-04-11T02:23:21.877Z,7.70
2019-04-11T02:26:14.718Z,7.60
2019-04-11T02:28:46.699Z,7.60
2019-04-11T02:31:22.856Z,7.60
2019-04-11T02:33:55.335Z,7.50
2019-04-11T02:36:29.518Z,7.50
2019-04-11T02:39:12.266Z,7.50
2019-04-11T02:41:40.124Z,7.50
2019-04-11T02:44:31.998Z,7.40
2019-04-11T02:46:58.148Z,7.40
2019-04-11T02:49:23.680Z,7.40
2019-04-11T02:51:56.523Z,7.40
2019-04-11T02:54:28.429Z,7.40
2019-04-11T02:57:09.575Z,7.30
2019-04-11T02:59:44.487Z,7.30
2019-04-11T03:02:19.261Z,7.30
2019-04-11T03:04:55.635Z,7.30
2019-04-11T03:07:29.890Z,7.20
2019-04-11T03:10:03.159Z,7.20
2019-04-11T03:12:38.127Z,7.20
2019-04-11T03:15:28.874Z,7.20
2019-04-11T03:17:45.996Z,7.20
2019-04-11T03:20:26.378Z,7.10
2019-04-11T03:22:56.702Z,7.10
2019-04-11T03:25:24.692Z,7.10
2019-04-11T03:27:58.986Z,7.10
2019-04-11T03:30:48.933Z,7.10
2019-04-11T03:38:38.490Z,7.00
2019-04-11T03:41:08.732Z,7.40
2019-04-11T03:43:30.201Z,6.90
2019-04-11T03:46:15.984Z,6.90
2019-04-11T03:48:40.515Z,6.90
2019-04-11T03:51:01.837Z,6.90
2019-04-11T03:53:34.820Z,6.90
2019-04-11T03:56:07.750Z,6.80
2019-04-11T03:58:39.829Z,6.80
2019-04-11T04:01:14.058Z,6.80
2019-04-11T04:03:47.499Z,6.70
2019-04-11T04:06:21.062Z,6.80
2019-04-11T04:08:54.872Z,6.70
2019-04-11T04:11:27.840Z,6.70
2019-04-11T04:14:10.492Z,6.70
2019-04-11T04:17:03.920Z,6.60
2019-04-11T04:19:51.776Z,6.60
2019-04-11T04:22:31.448Z,6.60
2019-04-11T04:25:04.353Z,6.60
2019-04-11T04:27:36.113Z,6.60
2019-04-11T04:30:09.165Z,6.50
2019-04-11T04:32:42.899Z,6.50
2019-04-11T04:35:19.753Z,6.50
2019-04-11T04:37:51.853Z,6.50
2019-04-11T04:40:42.240Z,6.40
2019-04-11T04:43:01.242Z,6.50
2019-04-11T04:45:54.982Z,6.40
2019-04-11T04:48:11.193Z,6.40
2019-04-11T04:50:39.448Z,6.30
2019-04-11T04:53:11.653Z,6.30
2019-04-11T04:55:43.680Z,6.30
2019-04-11T04:58:18.006Z,6.30
2019-04-11T05:00:52.033Z,6.30
2019-04-11T05:03:24.624Z,6.30
2019-04-11T05:05:58.357Z,6.30
2019-04-11T05:08:30.572Z,6.30
2019-04-11T05:11:04.512Z,6.30
2019-04-11T05:13:36.744Z,6.30
2019-04-11T05:16:17.160Z,6.20
2019-04-11T05:18:42.435Z,6.20
2019-04-11T05:21:14.209Z,6.30
2019-04-11T05:23:46.348Z,6.20
2019-04-11T05:26:18.031Z,6.30
2019-04-11T05:28:50.772Z,6.30
2019-04-11T05:31:22.779Z,6.30
2019-04-11T05:33:54.342Z,6.30
2019-04-11T05:36:25.989Z,6.30
2019-04-11T05:38:58.252Z,6.30
2019-04-11T05:41:31.358Z,6.30
2019-04-11T05:44:07.673Z,6.40
2019-04-11T05:46:49.077Z,6.40
2019-04-11T05:49:24.698Z,6.40
2019-04-11T05:52:00.410Z,6.40
2019-04-11T05:54:41.019Z,6.40
2019-04-11T05:57:13.275Z,6.40
2019-04-11T05:59:49.934Z,6.50
2019-04-11T06:02:49.213Z,6.50
2019-04-11T06:05:59.799Z,6.60
2019-04-11T06:08:30.268Z,6.60
2019-04-11T06:11:19.304Z,6.60
2019-04-11T06:14:13.047Z,6.70
2019-04-11T06:16:52.222Z,6.70
2019-04-11T06:19:43.778Z,6.80
2019-04-11T06:22:15.548Z,6.90
2019-04-11T06:25:30.885Z,6.90
2019-04-11T06:28:13.914Z,7.00
2019-04-11T06:31:04.844Z,7.00
2019-04-11T06:33:54.044Z,7.10
2019-04-11T06:36:50.258Z,7.20
2019-04-11T06:39:31.503Z,7.30
2019-04-11T06:42:08.699Z,7.40
2019-04-11T06:45:09.349Z,7.50
2019-04-11T06:48:13.542Z,7.50
2019-04-11T06:50:55.803Z,7.60
2019-04-11T06:53:34.422Z,7.70
2019-04-11T06:56:17.339Z,7.70
2019-04-11T06:58:54.141Z,7.80
2019-04-11T07:01:30.080Z,7.80
2019-04-11T07:04:09.182Z,7.90
2019-04-11T07:06:42.602Z,8.00
2019-04-11T07:09:34.898Z,8.10
2019-04-11T07:12:10.514Z,7.90
2019-04-11T07:14:51.166Z,8.20
2019-04-11T07:17:40.514Z,8.30
2019-04-11T07:20:43.684Z,8.30
2019-04-11T07:23:33.140Z,8.40
2019-04-11T07:26:27.358Z,8.40
2019-04-11T07:29:24.211Z,8.50
2019-04-11T07:32:17.855Z,8.60
2019-04-11T07:35:19.377Z,8.60
2019-04-11T07:37:53.336Z,8.70
2019-04-11T07:40:43.092Z,8.80
2019-04-11T07:43:33.516Z,8.90
2019-04-11T07:46:27.377Z,9.00
2019-04-11T07:49:10.047Z,9.10
2019-04-11T07:52:04.705Z,9.20
2019-04-11T07:54:36.978Z,9.30
2019-04-11T07:57:19.316Z,9.40
2019-04-11T08:00:09.476Z,9.50
2019-04-11T08:03:19.196Z,9.60
2019-04-11T08:06:09.590Z,9.70
2019-04-11T08:09:05.733Z,9.70
2019-04-11T08:12:02.688Z,9.80
2019-04-11T08:14:52.860Z,9.90
2019-04-11T08:17:35.519Z,10.00
2019-04-11T08:20:33.271Z,10.10
2019-04-11T08:23:07.593Z,10.20
2019-04-11T08:25:57.748Z,10.20
2019-04-11T08:28:29.491Z,10.30
2019-04-11T08:31:26.454Z,10.40
2019-04-11T08:34:04.902Z,10.50
2019-04-11T08:37:01.759Z,10.60
2019-04-11T08:39:37.706Z,10.70
2019-04-11T08:42:33.650Z,10.80
2019-04-11T08:45:10.686Z,10.90
2019-04-11T08:47:52.657Z,11.00
2019-04-11T08:50:30.482Z,11.00
2019-04-11T08:53:32.963Z,11.10
2019-04-11T08:56:07.543Z,11.20
2019-04-11T08:58:55.122Z,11.40
2019-04-11T09:01:27.764Z,11.50
2019-04-11T09:04:32.341Z,11.60
2019-04-11T09:07:05.189Z,11.70
2019-04-11T09:10:09.444Z,11.90
2019-04-11T09:12:46.831Z,12.00
2019-04-11T09:15:46.309Z,12.10
2019-04-11T09:18:21.809Z,12.50
2019-04-11T09:21:30.357Z,12.40
2019-04-11T09:24:03.673Z,12.60
2019-04-11T09:27:12.781Z,12.70
2019-04-11T09:29:48.555Z,12.80
2019-04-11T09:32:40.667Z,13.00
2019-04-11T09:35:26.979Z,13.10
2019-04-11T09:38:02.283Z,13.30
2019-04-11T09:40:39.750Z,13.40
2019-04-11T09:43:22.645Z,13.50
2019-04-11T09:46:14.449Z,13.70
2019-04-11T09:49:23.321Z,13.90
2019-04-11T09:52:07.385Z,14.10
2019-04-11T09:55:01.889Z,14.30
2019-04-11T09:57:42.148Z,14.60
2019-04-11T10:00:36.750Z,14.80
2019-04-11T10:03:17.581Z,15.10
2019-04-11T10:06:09.690Z,15.50
2019-04-11T10:08:49.215Z,15.90
2019-04-11T10:11:55.204Z,16.40
2019-04-11T10:14:29.423Z,16.90
2019-04-11T10:17:22.308Z,17.40
2019-04-11T10:19:57.336Z,17.70
2019-04-11T10:22:48.303Z,17.80
2019-04-11T10:25:25.535Z,17.90
2019-04-11T10:28:22.348Z,18.60
2019-04-11T10:31:14.672Z,18.50
2019-04-11T10:34:11.205Z,19.00
2019-04-11T10:36:59.200Z,19.50
2019-04-11T10:40:00.095Z,19.90
2019-04-11T10:42:34.981Z,20.10
2019-04-11T10:45:30.982Z,20.40
2019-04-11T10:48:09.627Z,20.70
2019-04-11T10:51:12.965Z,21.10
2019-04-11T10:53:44.886Z,21.50
2019-04-11T10:56:37.694Z,21.90
2019-04-11T10:59:09.394Z,22.00
2019-04-11T11:02:00.305Z,22.00
2019-04-11T11:04:38.908Z,21.90
2019-04-11T11:07:16.329Z,21.60
2019-04-11T11:10:03.156Z,21.20
2019-04-11T11:12:47.865Z,20.90
2019-04-11T11:15:23.286Z,20.80
2019-04-11T11:18:48.034Z,20.90
2019-04-11T11:21:11.779Z,21.20
2019-04-11T11:24:06.293Z,21.80
2019-04-11T11:26:36.361Z,22.20
2019-04-11T11:29:27.099Z,22.50
2019-04-11T11:32:05.163Z,22.70
2019-04-11T11:34:56.999Z,22.90
2019-04-11T11:37:37.512Z,23.00
2019-04-11T11:40:32.153Z,23.30
2019-04-11T11:43:33.180Z,23.50
2019-04-11T11:46:12.702Z,23.80
2019-04-11T11:48:49.962Z,24.20
2019-04-11T11:51:43.703Z,24.50
2019-04-11T11:54:24.043Z,24.70
2019-04-11T11:57:00.220Z,24.50
2019-04-11T11:59:41.311Z,24.20
2019-04-11T12:02:21.107Z,23.70
2019-04-11T12:05:26.784Z,23.20
2019-04-11T12:08:18.183Z,22.80
2019-04-11T12:11:00.406Z,22.70
2019-04-11T12:13:51.710Z,23.00
2019-04-11T12:16:43.827Z,23.30
2019-04-11T12:19:24.763Z,23.80
2019-04-11T12:21:57.519Z,24.20
2019-04-11T12:24:43.005Z,24.70
2019-04-11T12:27:33.576Z,25.10
2019-04-11T12:30:38.418Z,25.60
2019-04-11T12:33:35.546Z,26.10
2019-04-11T12:36:14.645Z,26.50
2019-04-11T12:39:08.442Z,26.90
2019-04-11T12:42:13.609Z,27.10
2019-04-11T12:45:00.216Z,27.20
2019-04-11T12:47:41.684Z,27.30
2019-04-11T12:50:33.011Z,27.50
2019-04-11T12:53:18.979Z,27.60
2019-04-11T12:56:09.018Z,27.80
2019-04-11T12:58:44.043Z,27.90
2019-04-11T13:01:34.214Z,28.00
2019-04-11T13:04:24.113Z,28.20
2019-04-11T13:07:21.100Z,28.30
2019-04-11T13:10:11.742Z,28.20
2019-04-11T13:13:14.859Z,27.80
2019-04-11T13:15:54.532Z,27.40
2019-04-11T13:19:04.021Z,27.10
2019-04-11T13:21:44.160Z,27.10
2019-04-11T13:24:34.361Z,27.00
2019-04-11T13:27:34.027Z,27.00
2019-04-11T13:30:45.761Z,26.90
2019-04-11T13:33:24.804Z,26.80
2019-04-11T13:36:16.201Z,26.60
2019-04-11T13:38:52.472Z,26.40
2019-04-11T13:42:04.750Z,26.10
2019-04-11T13:44:38.785Z,25.60
2019-04-11T13:47:28.500Z,25.10
2019-04-11T13:50:16.121Z,24.80
2019-04-11T13:53:09.084Z,24.60
2019-04-11T13:55:44.142Z,24.40
2019-04-11T13:58:34.826Z,24.10
2019-04-11T14:01:12.918Z,24.00
2019-04-11T14:04:12.457Z,23.70
2019-04-11T14:06:44.275Z,23.50
2019-04-11T14:09:32.960Z,23.10
2019-04-11T14:12:09.949Z,22.80
2019-04-11T14:15:11.806Z,22.50
2019-04-11T14:18:05.035Z,22.10
2019-04-11T14:20:46.370Z,21.70
2019-04-11T14:23:37.018Z,21.50
2019-04-11T14:26:25.527Z,21.20
2019-04-11T14:29:00.829Z,21.20
2019-04-11T14:31:48.478Z,21.00
2019-04-11T14:34:38.046Z,20.90
2019-04-11T14:37:38.042Z,20.60
2019-04-11T14:40:11.407Z,20.40
2019-04-11T14:43:04.473Z,20.20
2019-04-11T14:45:56.569Z,20.00
2019-04-11T14:48:40.097Z,20.10
2019-04-11T14:51:37.638Z,20.10
2019-04-11T14:54:17.249Z,20.00
2019-04-11T14:57:02.477Z,19.80
2019-04-11T14:59:38.416Z,19.60
2019-04-11T15:02:31.888Z,19.60
2019-04-11T15:05:14.451Z,19.50
2019-04-11T15:07:46.830Z,19.30
2019-04-11T15:10:47.939Z,19.10
2019-04-11T15:13:18.653Z,19.00
2019-04-11T15:16:10.853Z,18.70
2019-04-11T15:18:54.116Z,18.60
2019-04-11T15:21:56.751Z,18.40
2019-04-11T15:24:28.474Z,18.30
2019-04-11T15:27:31.277Z,18.10
2019-04-11T15:30:06.091Z,18.00
2019-04-11T15:32:56.794Z,17.90
2019-04-11T15:35:28.479Z,17.70
2019-04-11T15:38:17.734Z,17.60
2019-04-11T15:40:53.081Z,17.50
2019-04-11T15:43:43.689Z,17.30
2019-04-11T15:46:26.651Z,17.20
2019-04-11T15:49:24.689Z,17.10
2019-04-11T15:51:57.110Z,17.00
2019-04-11T15:54:47.701Z,16.90
2019-04-11T15:57:32.770Z,16.80
2019-04-11T16:00:28.262Z,16.70
2019-04-11T16:03:08.331Z,16.70
2019-04-11T16:06:01.618Z,16.60
2019-04-11T16:08:43.542Z,16.60
2019-04-11T16:11:33.413Z,16.50
2019-04-11T16:14:17.751Z,16.50
2019-04-11T16:17:13.742Z,16.40
2019-04-11T16:19:49.553Z,16.30
2019-04-11T16:22:43.362Z,16.20
2019-04-11T16:25:17.321Z,16.10
2019-04-11T16:28:08.255Z,15.90
2019-04-11T16:30:42.398Z,15.80
2019-04-11T16:33:33.292Z,15.70
2019-04-11T16:36:27.822Z,15.50
2019-04-11T16:39:19.537Z,15.40
2019-04-11T16:41:56.246Z,15.30
2019-04-11T16:44:46.285Z,15.10
2019-04-11T16:47:49.200Z,15.00
2019-04-11T16:50:20.967Z,15.00
2019-04-11T16:52:52.723Z,14.90
2019-04-11T16:55:24.524Z,14.80
2019-04-11T16:57:56.388Z,14.70
2019-04-11T17:00:28.096Z,14.70
2019-04-11T17:03:01.595Z,14.60
2019-04-11T17:05:33.400Z,14.50
2019-04-11T17:08:26.885Z,14.50
2019-04-11T17:11:18.748Z,14.40
2019-04-11T17:13:50.031Z,14.30
2019-04-11T17:16:22.377Z,14.20
2019-04-11T17:18:55.693Z,14.20
2019-04-11T17:21:27.569Z,14.10
2019-04-11T17:23:59.328Z,14.00
2019-04-11T17:26:31.160Z,13.90
2019-04-11T17:29:02.861Z,13.90
2019-04-11T17:31:35.016Z,13.80
2019-04-11T17:34:06.828Z,13.70
2019-04-11T17:36:39.705Z,13.70
2019-04-11T17:39:11.686Z,13.60
2019-04-11T17:41:43.483Z,13.50
2019-04-11T17:44:15.244Z,13.50
2019-04-11T17:46:47.099Z,13.40
2019-04-11T17:49:18.778Z,13.30
2019-04-11T17:51:56.135Z,13.30
2019-04-11T17:54:25.009Z,13.20
2019-04-11T17:56:58.983Z,13.10
2019-04-11T17:59:30.933Z,13.10
2019-04-11T18:02:04.635Z,13.00
2019-04-11T18:04:37.614Z,13.00
2019-04-11T18:07:09.430Z,12.90
2019-04-11T18:09:41.159Z,12.90
2019-04-11T18:12:13.009Z,12.80
2019-04-11T18:14:44.880Z,12.70
2019-04-11T18:17:16.713Z,12.70
2019-04-11T18:19:48.716Z,12.60
2019-04-11T18:22:20.504Z,12.60
2019-04-11T18:24:54.055Z,12.50
2019-04-11T18:27:26.010Z,12.40
2019-04-11T18:29:58.000Z,12.40
2019-04-11T18:32:29.901Z,12.30
2019-04-11T18:35:02.420Z,12.30
2019-04-11T18:37:34.683Z,12.20
2019-04-11T18:40:10.361Z,12.20
2019-04-11T18:42:42.164Z,12.10
2019-04-11T18:45:15.224Z,12.00
2019-04-11T18:47:47.265Z,12.00
2019-04-11T18:50:22.920Z,11.90
2019-04-11T18:52:59.159Z,11.90
2019-04-11T18:55:30.219Z,11.80
2019-04-11T18:58:04.593Z,11.80
2019-04-11T19:00:38.086Z,11.70
2019-04-11T19:03:10.290Z,11.70
2019-04-11T19:05:43.591Z,11.70
2019-04-11T19:08:15.653Z,11.60
2019-04-11T19:10:47.585Z,11.60
2019-04-11T19:13:19.597Z,11.80
2019-04-11T19:15:51.396Z,11.50
2019-04-11T19:18:23.205Z,11.40
2019-04-11T19:20:55.312Z,11.40
2019-04-11T19:23:27.118Z,11.30
2019-04-11T19:25:58.854Z,11.30
2019-04-11T19:28:30.636Z,11.20
2019-04-11T19:31:02.432Z,11.20
2019-04-11T19:33:34.839Z,11.20
2019-04-11T19:36:06.670Z,11.10
2019-04-11T19:38:43.063Z,11.10
2019-04-11T19:41:12.281Z,11.00
2019-04-11T19:43:44.099Z,11.00
2019-04-11T19:46:19.888Z,11.00
2019-04-11T19:48:49.574Z,11.00
2019-04-11T19:51:22.523Z,10.90
2019-04-11T19:53:54.466Z,10.90
2019-04-11T19:56:33.680Z,10.80
2019-04-11T19:59:05.676Z,10.80
2019-04-11T20:01:37.512Z,10.70
2019-04-11T20:04:10.346Z,10.70
2019-04-11T20:06:42.357Z,10.70
2019-04-11T20:09:14.479Z,10.70
2019-04-11T20:11:46.358Z,10.60
2019-04-11T20:14:18.293Z,10.60
2019-04-11T20:16:52.000Z,10.60
2019-04-11T20:19:27.145Z,10.60
2019-04-11T20:21:57.298Z,10.50
2019-04-11T20:24:29.179Z,10.50
2019-04-11T20:27:01.159Z,10.50
2019-04-11T20:29:33.146Z,10.40
2019-04-11T20:32:04.919Z,10.40
2019-04-11T20:34:38.542Z,10.40
2019-04-11T20:37:13.156Z,10.40
2019-04-11T20:39:46.756Z,10.30
2019-04-11T20:42:18.647Z,10.30
2019-04-11T20:44:50.986Z,10.30
2019-04-11T20:47:22.732Z,10.30
2019-04-11T20:49:54.489Z,10.20
2019-04-11T20:52:27.410Z,10.20
2019-04-11T20:54:59.131Z,10.20
2019-04-11T20:57:31.027Z,10.10
2019-04-11T21:00:05.534Z,10.10
2019-04-11T21:02:37.415Z,10.10
2019-04-11T21:05:09.367Z,10.10
2019-04-11T21:07:42.673Z,10.00
2019-04-11T21:10:14.669Z,10.00
2019-04-11T21:12:47.672Z,10.00
2019-04-11T21:15:19.603Z,9.90
2019-04-11T21:17:56.071Z,9.90
2019-04-11T21:20:28.447Z,9.90
2019-04-11T21:23:01.408Z,9.90
2019-04-11T21:25:35.648Z,9.80
2019-04-11T21:28:07.548Z,9.80
2019-04-11T21:30:39.521Z,9.80
2019-04-11T21:33:11.322Z,9.70
2019-04-11T21:35:45.114Z,9.70
2019-04-11T21:38:16.885Z,9.70
2019-04-11T21:40:48.786Z,9.60
2019-04-11T21:43:21.764Z,9.60
2019-04-11T21:45:54.943Z,9.60
2019-04-11T21:48:26.897Z,9.50
2019-04-11T21:50:59.167Z,9.50
2019-04-11T21:53:36.827Z,9.50
2019-04-11T21:56:05.860Z,9.40
2019-04-11T21:58:38.756Z,9.40
2019-04-11T22:01:14.923Z,9.40
2019-04-11T22:03:47.494Z,9.40
2019-04-11T22:06:20.531Z,9.40
2019-04-11T22:08:53.787Z,9.30
2019-04-11T22:11:25.806Z,9.30
2019-04-11T22:13:57.762Z,9.30
2019-04-11T22:16:29.527Z,9.30
2019-04-11T22:19:01.429Z,9.30
2019-04-11T22:21:33.464Z,9.30
2019-04-11T22:24:05.474Z,9.20
2019-04-11T22:26:38.253Z,9.30
2019-04-11T22:29:11.622Z,9.20
2019-04-11T22:31:43.501Z,9.30
2019-04-11T22:34:33.991Z,9.20
2019-04-11T22:37:06.384Z,9.20
2019-04-11T22:39:42.548Z,9.20
2019-04-11T22:42:15.510Z,9.20
2019-04-11T22:44:47.356Z,9.30
2019-04-11T22:47:19.142Z,9.20
2019-04-11T22:49:50.932Z,9.30
2019-04-11T22:52:24.256Z,9.30
2019-04-11T22:54:56.143Z,9.30
2019-04-11T22:57:27.969Z,9.30
2019-04-11T22:59:59.830Z,9.50
2019-04-11T23:02:51.903Z,9.40
2019-04-11T23:05:23.999Z,9.40
2019-04-11T23:07:55.898Z,9.40
2019-04-11T23:10:29.389Z,9.40
2019-04-11T23:13:01.219Z,9.40
2019-04-11T23:15:33.036Z,9.40
2019-04-11T23:18:04.844Z,9.40
2019-04-11T23:20:36.745Z,9.50
2019-04-11T23:23:08.490Z,9.50
2019-04-11T23:25:40.172Z,9.50
2019-04-11T23:28:15.601Z,9.50
2019-04-11T23:30:49.529Z,9.50
2019-04-11T23:33:21.423Z,9.50
2019-04-11T23:35:52.663Z,9.50
2019-04-11T23:38:24.591Z,9.50
2019-04-11T23:40:56.440Z,9.40
2019-04-11T23:43:28.167Z,9.50
2019-04-11T23:46:01.192Z,9.50
2019-04-11T23:48:33.007Z,9.50
2019-04-11T23:51:04.687Z,9.50
2019-04-11T23:53:36.450Z,9.50
2019-04-11T23:56:09.212Z,9.50
2019-04-11T23:58:41.007Z,9.50
